createdAt,value
2019-01-14T00:00:15.288Z,6.82
2019-01-14T00:03:19.001Z,6.74
2019-01-14T00:06:22.552Z,6.79
2019-01-14T00:09:31.079Z,6.74
2019-01-14T00:12:29.481Z,6.84
2019-01-14T00:15:32.913Z,6.80
2019-01-14T00:18:36.432Z,6.85
2019-01-14T00:21:39.903Z,6.80
2019-01-14T00:24:43.354Z,6.89
2019-01-14T00:27:46.875Z,6.89
2019-01-14T00:30:50.331Z,6.84
2019-01-14T00:33:53.903Z,6.79
2019-01-14T00:36:57.367Z,6.85
2019-01-14T00:40:00.839Z,6.83
2019-01-14T00:43:04.369Z,6.76
2019-01-14T00:46:07.845Z,6.77
2019-01-14T00:49:11.347Z,6.81
2019-01-14T00:52:14.877Z,6.94
2019-01-14T00:55:18.312Z,6.86
2019-01-14T00:58:21.762Z,6.92
2019-01-14T01:01:25.303Z,6.84
2019-01-14T01:04:28.747Z,6.82
2019-01-14T01:07:32.303Z,6.92
2019-01-14T01:10:35.757Z,6.90
2019-01-14T01:13:39.314Z,6.94
2019-01-14T01:16:42.855Z,6.98
2019-01-14T01:19:46.223Z,6.93
2019-01-14T01:22:50.690Z,6.83
2019-01-14T01:25:54.091Z,6.79
2019-01-14T01:28:57.498Z,6.77
2019-01-14T01:32:00.940Z,6.75
2019-01-14T01:35:05.106Z,6.78
2019-01-14T01:38:08.480Z,6.89
2019-01-14T01:41:11.928Z,6.92
2019-01-14T01:44:15.398Z,6.81
2019-01-14T01:47:18.770Z,6.79
2019-01-14T01:50:22.216Z,6.66
2019-01-14T01:53:25.588Z,6.64
2019-01-14T01:56:28.988Z,6.75
2019-01-14T01:59:32.402Z,6.65
2019-01-14T02:02:35.787Z,6.63
2019-01-14T02:05:39.237Z,6.69
2019-01-14T02:08:42.719Z,6.65
2019-01-14T02:11:46.140Z,6.60
2019-01-14T02:14:49.636Z,6.63
2019-01-14T02:17:53.154Z,6.62
2019-01-14T02:20:56.689Z,6.50
2019-01-14T02:24:00.143Z,6.48
2019-01-14T02:27:03.619Z,6.46
2019-01-14T02:30:08.927Z,6.37
2019-01-14T02:33:12.310Z,6.44
2019-01-14T02:36:15.801Z,6.40
2019-01-14T02:39:19.238Z,6.31
2019-01-14T02:42:22.709Z,6.39
2019-01-14T02:45:26.217Z,6.37
2019-01-14T02:48:29.675Z,6.45
2019-01-14T02:51:33.151Z,6.57
2019-01-14T02:54:36.568Z,6.56
2019-01-14T02:57:40.044Z,6.55
2019-01-14T03:00:43.470Z,6.56
2019-01-14T03:03:46.879Z,6.50
2019-01-14T03:06:57.582Z,6.48
2019-01-14T03:09:53.985Z,6.48
2019-01-14T03:12:57.525Z,6.52
2019-01-14T03:16:00.960Z,6.51
2019-01-14T03:19:04.526Z,6.56
2019-01-14T03:22:08.056Z,6.73
2019-01-14T03:25:12.001Z,6.69
2019-01-14T03:28:15.524Z,6.73
2019-01-14T03:31:19.050Z,6.66
2019-01-14T03:34:22.580Z,6.69
2019-01-14T03:37:26.095Z,6.67
2019-01-14T03:40:29.616Z,6.78
2019-01-14T03:43:33.229Z,6.76
2019-01-14T03:46:36.736Z,6.72
2019-01-14T03:49:40.236Z,6.58
2019-01-14T03:52:43.844Z,6.51
2019-01-14T03:55:47.421Z,6.44
2019-01-14T03:58:50.991Z,6.44
2019-01-14T04:01:54.410Z,6.35
2019-01-14T04:04:57.978Z,6.40
2019-01-14T04:08:01.483Z,6.40
2019-01-14T04:11:05.001Z,6.37
2019-01-14T04:14:08.425Z,6.35
2019-01-14T04:17:11.965Z,6.47
2019-01-14T04:20:16.593Z,6.50
2019-01-14T04:23:20.049Z,6.52
2019-01-14T04:26:23.600Z,6.52
2019-01-14T04:29:27.054Z,6.48
2019-01-14T04:32:30.601Z,6.40
2019-01-14T04:35:34.050Z,6.45
2019-01-14T04:38:37.439Z,6.47
2019-01-14T04:41:40.881Z,6.43
2019-01-14T04:44:45.419Z,6.43
2019-01-14T04:47:48.927Z,6.46
2019-01-14T04:50:52.390Z,6.57
2019-01-14T04:53:55.935Z,6.49
2019-01-14T04:56:59.412Z,6.55
2019-01-14T05:00:02.948Z,6.49
2019-01-14T05:03:06.432Z,6.48
2019-01-14T05:06:09.913Z,6.56
2019-01-14T05:09:13.508Z,6.57
2019-01-14T05:12:16.906Z,6.53
2019-01-14T05:15:20.377Z,6.42
2019-01-14T05:18:23.845Z,6.55
2019-01-14T05:21:27.256Z,6.54
2019-01-14T05:24:30.745Z,6.65
2019-01-14T05:27:34.243Z,6.65
2019-01-14T05:30:37.725Z,6.61
2019-01-14T05:33:41.237Z,6.59
2019-01-14T05:36:44.741Z,6.81
2019-01-14T05:39:48.207Z,6.83
2019-01-14T05:42:51.654Z,6.92
2019-01-14T05:45:55.159Z,6.78
2019-01-14T05:48:58.698Z,6.81
2019-01-14T05:52:02.182Z,6.89
2019-01-14T05:55:06.227Z,6.77
2019-01-14T05:58:09.781Z,6.81
2019-01-14T06:01:13.271Z,6.82
2019-01-14T06:04:16.736Z,6.66
2019-01-14T06:07:20.159Z,6.67
2019-01-14T06:10:23.524Z,6.72
2019-01-14T06:13:27.050Z,6.64
2019-01-14T06:16:30.492Z,6.64
2019-01-14T06:19:34.062Z,6.62
2019-01-14T06:22:37.554Z,6.76
2019-01-14T06:25:41.050Z,6.80
2019-01-14T06:28:44.580Z,6.70
2019-01-14T06:31:47.972Z,6.66
2019-01-14T06:34:51.372Z,6.71
2019-01-14T06:37:54.927Z,6.79
2019-01-14T06:40:58.519Z,6.75
2019-01-14T06:44:02.091Z,6.80
2019-01-14T06:47:05.547Z,6.79
2019-01-14T06:50:10.999Z,6.83
2019-01-14T06:53:14.496Z,6.80
2019-01-14T06:56:18.214Z,6.81
2019-01-14T06:59:21.633Z,6.81
2019-01-14T07:02:25.149Z,6.78
2019-01-14T07:05:28.609Z,6.73
2019-01-14T07:08:32.092Z,6.75
2019-01-14T07:11:35.724Z,6.78
2019-01-14T07:14:39.299Z,6.69
2019-01-14T07:17:42.894Z,6.68
2019-01-14T07:20:46.469Z,6.63
2019-01-14T07:23:49.935Z,6.47
2019-01-14T07:26:53.483Z,6.46
2019-01-14T07:29:56.948Z,6.48
2019-01-14T07:33:00.463Z,6.45
2019-01-14T07:36:04.127Z,6.50
2019-01-14T07:39:08.785Z,6.39
2019-01-14T07:42:12.325Z,6.43
2019-01-14T07:45:16.446Z,6.44
2019-01-14T07:48:19.855Z,6.40
2019-01-14T07:51:23.283Z,6.56
2019-01-14T07:54:26.680Z,6.50
2019-01-14T07:57:30.164Z,6.45
2019-01-14T08:00:33.634Z,6.38
2019-01-14T08:03:37.158Z,6.36
2019-01-14T08:06:40.619Z,6.46
2019-01-14T08:09:44.093Z,6.50
2019-01-14T08:12:47.511Z,6.57
2019-01-14T08:15:51.178Z,6.52
2019-01-14T08:18:54.599Z,6.50
2019-01-14T08:21:58.095Z,6.43
2019-01-14T08:25:02.513Z,6.37
2019-01-14T08:28:05.980Z,6.41
2019-01-14T08:31:09.457Z,6.40
2019-01-14T08:34:12.985Z,6.28
2019-01-14T08:37:16.463Z,6.39
2019-01-14T08:40:20.058Z,6.47
2019-01-14T08:43:23.623Z,6.53
2019-01-14T08:46:27.200Z,6.71
2019-01-14T08:49:30.685Z,6.64
2019-01-14T08:52:34.173Z,6.64
2019-01-14T08:55:37.886Z,6.68
2019-01-14T08:58:42.338Z,6.69
2019-01-14T09:01:45.825Z,6.63
2019-01-14T09:04:49.984Z,6.76
2019-01-14T09:07:53.561Z,6.77
2019-01-14T09:10:57.049Z,6.67
2019-01-14T09:14:00.607Z,6.63
2019-01-14T09:17:05.258Z,6.66
2019-01-14T09:20:12.100Z,6.75
2019-01-14T09:23:15.562Z,6.76
2019-01-14T09:26:20.105Z,6.69
2019-01-14T09:29:23.670Z,6.76
2019-01-14T09:35:58.758Z,6.97
2019-01-14T09:39:08.838Z,7.00
2019-01-14T09:42:12.504Z,7.22
2019-01-14T09:45:16.020Z,7.21
2019-01-14T09:48:20.649Z,7.17
2019-01-14T09:51:25.225Z,7.33
2019-01-14T09:54:28.834Z,7.25
2019-01-14T09:57:32.362Z,7.28
2019-01-14T10:00:36.962Z,7.46
2019-01-14T10:03:40.548Z,7.54
2019-01-14T10:06:44.101Z,7.68
2019-01-14T10:09:47.705Z,7.66
2019-01-14T10:12:51.147Z,7.70
2019-01-14T10:15:54.668Z,7.62
2019-01-14T10:18:58.329Z,7.53
2019-01-14T10:22:01.854Z,7.48
2019-01-14T10:25:06.205Z,7.52
2019-01-14T10:28:09.724Z,7.45
2019-01-14T10:31:13.169Z,7.53
2019-01-14T10:34:16.725Z,7.56
2019-01-14T10:37:22.892Z,7.56
2019-01-14T10:40:23.899Z,7.58
2019-01-14T10:43:27.443Z,7.62
2019-01-14T10:46:30.950Z,7.59
2019-01-14T10:49:34.528Z,7.54
2019-01-14T10:52:38.090Z,7.52
2019-01-14T10:55:41.590Z,7.59
2019-01-14T10:58:45.080Z,7.56
2019-01-14T11:01:48.570Z,7.58
2019-01-14T11:04:52.147Z,7.64
2019-01-14T11:07:55.680Z,7.77
2019-01-14T11:10:59.202Z,7.89
2019-01-14T11:14:02.679Z,7.88
2019-01-14T11:17:06.200Z,7.91
2019-01-14T11:20:13.228Z,7.88
2019-01-14T11:23:16.794Z,7.81
2019-01-14T11:26:20.421Z,7.84
2019-01-14T11:29:23.880Z,7.71
2019-01-14T11:32:27.373Z,7.68
2019-01-14T11:35:30.823Z,7.84
2019-01-14T11:38:39.267Z,7.71
2019-01-14T11:41:42.856Z,7.65
2019-01-14T11:44:46.249Z,7.60
2019-01-14T11:47:49.652Z,7.60
2019-01-14T11:50:53.080Z,7.60
2019-01-14T11:53:56.548Z,7.60
2019-01-14T11:56:59.927Z,6.53
2019-01-14T12:00:03.522Z,5.72
2019-01-14T12:03:08.525Z,4.55
2019-01-14T12:06:10.481Z,4.33
2019-01-14T12:09:14.026Z,4.24
2019-01-14T12:12:17.484Z,4.21
2019-01-14T12:15:23.017Z,4.15
2019-01-14T12:18:26.426Z,4.13
2019-01-14T12:21:29.920Z,4.00
2019-01-14T12:24:33.322Z,4.00
2019-01-14T12:27:36.821Z,4.00
2019-01-14T12:30:41.732Z,4.12
2019-01-14T12:33:44.044Z,4.15
2019-01-14T12:36:47.540Z,4.22
2019-01-14T12:39:50.942Z,4.30
2019-01-14T12:42:54.671Z,4.42
2019-01-14T12:45:58.145Z,4.43
2019-01-14T12:49:01.522Z,4.41
2019-01-14T12:52:05.106Z,4.39
2019-01-14T12:55:09.696Z,4.42
2019-01-14T12:58:13.164Z,4.45
2019-01-14T13:01:16.606Z,4.63
2019-01-14T13:04:20.057Z,4.54
2019-01-14T13:07:23.481Z,4.71
2019-01-14T13:10:26.958Z,4.56
2019-01-14T13:13:30.405Z,4.52
2019-01-14T13:16:33.775Z,4.61
2019-01-14T13:19:37.228Z,4.63
2019-01-14T13:22:40.760Z,4.70
2019-01-14T13:25:44.170Z,4.75
2019-01-14T13:28:47.664Z,4.68
2019-01-14T13:31:51.110Z,4.69
2019-01-14T13:34:54.607Z,4.71
2019-01-14T13:37:58.264Z,4.76
2019-01-14T13:41:01.776Z,4.76
2019-01-14T13:44:05.263Z,4.75
2019-01-14T13:47:08.710Z,4.81
2019-01-14T13:50:13.730Z,4.90
2019-01-14T13:53:17.186Z,4.94
2019-01-14T13:56:20.531Z,5.00
2019-01-14T13:59:23.946Z,4.99
2019-01-14T14:02:27.324Z,5.00
2019-01-14T14:05:30.738Z,5.15
2019-01-14T14:08:34.124Z,5.23
2019-01-14T14:11:37.541Z,5.14
2019-01-14T14:14:40.923Z,4.97
2019-01-14T14:17:44.369Z,4.99
2019-01-14T14:20:47.797Z,5.08
2019-01-14T14:24:02.260Z,5.07
2019-01-14T14:27:05.813Z,5.18
2019-01-14T14:30:15.232Z,5.13
2019-01-14T14:33:18.746Z,5.21
2019-01-14T14:36:22.262Z,5.27
2019-01-14T14:39:25.743Z,5.35
2019-01-14T14:42:29.243Z,5.41
2019-01-14T14:45:32.825Z,5.37
2019-01-14T14:48:36.369Z,5.49
2019-01-14T14:51:39.890Z,5.37
2019-01-14T14:54:43.400Z,5.29
2019-01-14T14:57:46.947Z,5.32
2019-01-14T15:00:50.495Z,5.41
2019-01-14T15:03:53.967Z,5.37
2019-01-14T15:06:57.511Z,5.45
2019-01-14T15:10:00.976Z,5.39
2019-01-14T15:13:04.719Z,5.39
2019-01-14T15:16:09.426Z,5.41
2019-01-14T15:19:12.942Z,5.46
2019-01-14T15:22:16.394Z,5.49
2019-01-14T15:25:20.472Z,5.53
2019-01-14T15:28:24.074Z,5.50
2019-01-14T15:31:27.753Z,5.41
2019-01-14T15:34:33.163Z,5.45
2019-01-14T15:37:36.412Z,5.43
2019-01-14T15:40:39.902Z,5.36
2019-01-14T15:43:46.249Z,5.41
2019-01-14T15:46:49.771Z,5.24
2019-01-14T15:49:53.296Z,5.15
2019-01-14T15:52:56.819Z,5.16
2019-01-14T15:56:00.294Z,5.06
2019-01-14T15:59:03.804Z,5.04
2019-01-14T16:02:07.424Z,4.91
2019-01-14T16:05:11.092Z,4.89
2019-01-14T16:08:14.670Z,4.78
2019-01-14T16:11:18.168Z,4.77
2019-01-14T16:14:21.669Z,4.74
2019-01-14T16:17:25.221Z,4.66
2019-01-14T16:20:28.746Z,4.69
2019-01-14T16:23:32.270Z,4.57
2019-01-14T16:26:35.724Z,4.53
2019-01-14T16:29:39.306Z,4.53
2019-01-14T16:32:42.960Z,4.50
2019-01-14T16:35:46.400Z,4.45
2019-01-14T16:38:49.858Z,4.41
2019-01-14T16:41:53.395Z,4.42
2019-01-14T16:44:56.944Z,4.41
2019-01-14T16:48:00.549Z,4.44
2019-01-14T16:51:04.143Z,4.58
2019-01-14T16:54:07.651Z,4.60
2019-01-14T16:57:11.288Z,4.63
2019-01-14T17:00:17.056Z,4.69
2019-01-14T17:03:22.564Z,4.72
2019-01-14T17:06:26.151Z,4.74
2019-01-14T17:09:29.731Z,4.70
2019-01-14T17:12:33.229Z,4.84
2019-01-14T17:15:36.700Z,4.82
2019-01-14T17:18:40.260Z,4.85
2019-01-14T17:21:43.713Z,4.81
2019-01-14T17:24:47.237Z,4.82
2019-01-14T17:27:50.791Z,4.80
2019-01-14T17:30:54.354Z,4.72
2019-01-14T17:33:57.868Z,4.55
2019-01-14T17:37:02.031Z,4.54
2019-01-14T17:40:08.165Z,4.58
2019-01-14T17:43:11.629Z,4.45
2019-01-14T17:46:15.984Z,4.40
2019-01-14T17:49:19.537Z,4.36
2019-01-14T17:52:23.320Z,4.40
2019-01-14T17:55:26.918Z,4.35
2019-01-14T17:58:30.639Z,4.28
2019-01-14T18:01:34.139Z,4.28
2019-01-14T18:04:37.930Z,4.35
2019-01-14T18:07:42.171Z,4.29
2019-01-14T18:14:16.285Z,4.17
2019-01-14T18:17:19.878Z,4.13
2019-01-14T18:20:23.529Z,4.12
2019-01-14T18:23:27.138Z,4.03
2019-01-14T18:26:30.679Z,4.04
2019-01-14T18:29:34.220Z,4.05
2019-01-14T18:32:37.843Z,4.05
2019-01-14T18:35:41.455Z,4.04
2019-01-14T18:38:45.013Z,3.97
2019-01-14T18:41:48.510Z,4.00
2019-01-14T18:44:51.960Z,3.99
2019-01-14T18:47:55.558Z,3.91
2019-01-14T18:50:59.031Z,3.90
2019-01-14T18:54:02.467Z,3.86
2019-01-14T18:57:06.083Z,3.81
2019-01-14T19:00:12.649Z,3.84
2019-01-14T19:03:16.103Z,3.78
2019-01-14T19:06:19.492Z,3.78
2019-01-14T19:09:22.925Z,3.74
2019-01-14T19:12:26.296Z,3.80
2019-01-14T19:15:29.861Z,3.83
2019-01-14T19:18:33.338Z,3.71
2019-01-14T19:21:38.038Z,3.66
2019-01-14T19:24:41.601Z,3.66
2019-01-14T19:31:16.380Z,3.61
2019-01-14T19:34:22.135Z,3.67
2019-01-14T19:37:27.373Z,3.66
2019-01-14T19:40:30.984Z,3.69
2019-01-14T19:43:34.658Z,3.72
2019-01-14T19:46:38.057Z,3.77
2019-01-14T19:49:41.605Z,3.80
2019-01-14T19:52:45.375Z,3.83
2019-01-14T19:55:50.140Z,3.86
2019-01-14T19:58:56.282Z,3.84
2019-01-14T20:01:59.812Z,3.80
2019-01-14T20:05:04.800Z,3.66
2019-01-14T20:08:08.306Z,3.52
2019-01-14T20:11:11.816Z,3.54
2019-01-14T20:14:15.266Z,3.48
2019-01-14T20:17:18.764Z,3.42
2019-01-14T20:20:22.328Z,3.41
2019-01-14T20:23:25.842Z,3.27
2019-01-14T20:26:30.314Z,3.26
2019-01-14T20:29:34.355Z,3.26
2019-01-14T20:32:37.869Z,3.35
2019-01-14T20:35:41.628Z,3.56
2019-01-14T20:38:48.720Z,3.63
2019-01-14T20:41:54.028Z,3.67
2019-01-14T20:44:57.513Z,3.72
2019-01-14T20:48:00.962Z,3.80
2019-01-14T20:51:05.627Z,3.81
2019-01-14T20:54:07.899Z,3.77
2019-01-14T20:57:11.391Z,3.87
2019-01-14T21:00:16.979Z,3.97
2019-01-14T21:03:20.447Z,3.97
2019-01-14T21:06:24.000Z,4.01
2019-01-14T21:09:27.431Z,4.11
2019-01-14T21:12:30.909Z,4.00
2019-01-14T21:15:34.489Z,3.84
2019-01-14T21:18:37.934Z,3.72
2019-01-14T21:21:41.434Z,3.66
2019-01-14T21:24:44.844Z,3.56
2019-01-14T21:27:48.333Z,3.62
2019-01-14T21:30:51.748Z,3.55
2019-01-14T21:33:55.199Z,3.52
2019-01-14T21:36:58.650Z,3.57
2019-01-14T21:40:02.314Z,3.61
2019-01-14T21:46:06.360Z,3.55
2019-01-14T21:49:09.876Z,3.51
2019-01-14T21:52:13.310Z,3.48
2019-01-14T21:55:20.136Z,3.45
2019-01-14T21:58:23.600Z,3.44
2019-01-14T22:01:27.181Z,3.36
2019-01-14T22:04:30.673Z,3.42
2019-01-14T22:07:34.187Z,3.41
2019-01-14T22:10:38.603Z,3.37
2019-01-14T22:13:42.178Z,3.36
2019-01-14T22:16:45.796Z,3.39
2019-01-14T22:19:49.426Z,3.40
2019-01-14T22:22:52.943Z,3.42
2019-01-14T22:25:56.578Z,3.48
2019-01-14T22:32:36.575Z,3.60
2019-01-14T22:35:40.164Z,3.62
2019-01-14T22:38:43.664Z,3.67
2019-01-14T22:41:48.307Z,3.61
2019-01-14T22:44:51.812Z,3.58
2019-01-14T22:47:55.312Z,3.55
2019-01-14T22:50:59.805Z,3.51
2019-01-14T22:54:03.331Z,3.42
2019-01-14T22:57:06.923Z,3.36
2019-01-14T23:01:19.782Z,3.41
2019-01-14T23:04:23.280Z,3.45
2019-01-14T23:07:26.886Z,3.56
2019-01-14T23:10:30.392Z,3.59
2019-01-14T23:13:33.972Z,3.60
2019-01-14T23:16:37.588Z,3.59
2019-01-14T23:19:41.111Z,3.62
2019-01-14T23:22:44.696Z,3.58
2019-01-14T23:25:48.208Z,3.56
2019-01-14T23:28:51.758Z,3.53
2019-01-14T23:31:55.424Z,3.56
2019-01-14T23:34:59.016Z,3.67
2019-01-14T23:38:02.643Z,3.64
2019-01-14T23:41:06.221Z,3.72
2019-01-14T23:44:10.805Z,3.72
2019-01-14T23:47:14.378Z,3.69
2019-01-14T23:50:17.985Z,3.66
2019-01-14T23:53:21.582Z,3.65
2019-01-14T23:56:25.365Z,3.67
2019-01-14T23:59:29.062Z,3.70
